sensor_id;sensor_type;location;lat;lon;timestamp;temperature;humidity
18392;DHT22;9322;50.932;5.318;2024-03-08T00:01:31;5.70;1.40
18392;DHT22;9322;50.932;5.318;2024-03-08T00:03:57;5.80;1.40
18392;DHT22;9322;50.932;5.318;2024-03-08T00:06:22;5.80;1.40
18392;DHT22;9322;50.932;5.318;2024-03-08T00:08:48;5.80;1.40
18392;DHT22;9322;50.932;5.318;2024-03-08T00:11:14;5.70;1.40
18392;DHT22;9322;50.932;5.318;2024-03-08T00:13:40;5.70;1.40
18392;DHT22;9322;50.932;5.318;2024-03-08T00:16:05;5.60;1.40
18392;DHT22;9322;50.932;5.318;2024-03-08T00:18:31;5.60;1.40
18392;DHT22;9322;50.932;5.318;2024-03-08T00:20:57;5.50;1.40
18392;DHT22;9322;50.932;5.318;2024-03-08T00:23:23;5.50;1.40
18392;DHT22;9322;50.932;5.318;2024-03-08T00:25:49;5.50;1.40
18392;DHT22;9322;50.932;5.318;2024-03-08T00:28:15;5.50;1.40
18392;DHT22;9322;50.932;5.318;2024-03-08T00:30:42;5.50;1.40
18392;DHT22;9322;50.932;5.318;2024-03-08T00:33:08;5.40;1.40
18392;DHT22;9322;50.932;5.318;2024-03-08T00:35:34;5.40;1.40
18392;DHT22;9322;50.932;5.318;2024-03-08T00:38:00;5.30;1.40
18392;DHT22;9322;50.932;5.318;2024-03-08T00:40:25;5.30;1.40
18392;DHT22;9322;50.932;5.318;2024-03-08T00:42:51;5.30;1.40
18392;DHT22;9322;50.932;5.318;2024-03-08T00:45:18;5.20;1.40
18392;DHT22;9322;50.932;5.318;2024-03-08T00:47:44;5.10;1.40
18392;DHT22;9322;50.932;5.318;2024-03-08T00:50:10;5.20;1.40
18392;DHT22;9322;50.932;5.318;2024-03-08T00:52:37;5.20;1.40
18392;DHT22;9322;50.932;5.318;2024-03-08T00:55:03;5.20;1.40
18392;DHT22;9322;50.932;5.318;2024-03-08T00:57:28;5.10;1.40
18392;DHT22;9322;50.932;5.318;2024-03-08T00:59:55;5.10;1.40
18392;DHT22;9322;50.932;5.318;2024-03-08T01:02:21;5.10;1.40
18392;DHT22;9322;50.932;5.318;2024-03-08T01:04:49;5.10;1.40
18392;DHT22;9322;50.932;5.318;2024-03-08T01:07:14;5.00;1.40
18392;DHT22;9322;50.932;5.318;2024-03-08T01:09:41;5.10;1.40
18392;DHT22;9322;50.932;5.318;2024-03-08T01:12:07;5.00;1.40
18392;DHT22;9322;50.932;5.318;2024-03-08T01:14:33;5.00;1.40
18392;DHT22;9322;50.932;5.318;2024-03-08T01:16:59;5.00;1.40
18392;DHT22;9322;50.932;5.318;2024-03-08T01:19:25;4.90;1.40
18392;DHT22;9322;50.932;5.318;2024-03-08T01:21:50;4.90;1.40
18392;DHT22;9322;50.932;5.318;2024-03-08T01:24:16;4.90;1.40
18392;DHT22;9322;50.932;5.318;2024-03-08T01:26:42;4.90;1.40
18392;DHT22;9322;50.932;5.318;2024-03-08T01:29:08;4.90;1.40
18392;DHT22;9322;50.932;5.318;2024-03-08T01:31:34;4.90;1.40
18392;DHT22;9322;50.932;5.318;2024-03-08T01:34:02;4.80;1.40
18392;DHT22;9322;50.932;5.318;2024-03-08T01:36:27;4.80;1.40
18392;DHT22;9322;50.932;5.318;2024-03-08T01:38:53;4.80;1.40
18392;DHT22;9322;50.932;5.318;2024-03-08T01:41:19;4.80;1.40
18392;DHT22;9322;50.932;5.318;2024-03-08T01:43:45;4.70;1.40
18392;DHT22;9322;50.932;5.318;2024-03-08T01:46:13;4.70;1.40
18392;DHT22;9322;50.932;5.318;2024-03-08T01:48:42;4.70;1.40
18392;DHT22;9322;50.932;5.318;2024-03-08T01:51:08;4.60;1.40
18392;DHT22;9322;50.932;5.318;2024-03-08T01:53:34;4.60;1.40
18392;DHT22;9322;50.932;5.318;2024-03-08T01:56:02;4.60;1.40
18392;DHT22;9322;50.932;5.318;2024-03-08T01:58:29;4.60;1.40
18392;DHT22;9322;50.932;5.318;2024-03-08T02:00:56;4.50;1.40
18392;DHT22;9322;50.932;5.318;2024-03-08T02:03:23;4.50;1.40
18392;DHT22;9322;50.932;5.318;2024-03-08T02:05:49;4.50;1.40
18392;DHT22;9322;50.932;5.318;2024-03-08T02:08:17;4.50;1.40
18392;DHT22;9322;50.932;5.318;2024-03-08T02:10:44;4.40;1.40
18392;DHT22;9322;50.932;5.318;2024-03-08T02:13:10;4.50;1.40
18392;DHT22;9322;50.932;5.318;2024-03-08T02:15:56;4.50;1.40
18392;DHT22;9322;50.932;5.318;2024-03-08T02:18:22;4.40;1.40
18392;DHT22;9322;50.932;5.318;2024-03-08T02:21:18;4.40;1.40
18392;DHT22;9322;50.932;5.318;2024-03-08T02:23:44;4.40;1.40
18392;DHT22;9322;50.932;5.318;2024-03-08T02:26:10;4.40;1.40
18392;DHT22;9322;50.932;5.318;2024-03-08T02:28:36;4.40;1.40
18392;DHT22;9322;50.932;5.318;2024-03-08T02:31:02;4.30;1.40
18392;DHT22;9322;50.932;5.318;2024-03-08T02:33:28;4.30;1.40
18392;DHT22;9322;50.932;5.318;2024-03-08T02:35:54;4.30;1.40
18392;DHT22;9322;50.932;5.318;2024-03-08T02:38:22;4.30;1.40
18392;DHT22;9322;50.932;5.318;2024-03-08T02:40:50;4.30;1.40
18392;DHT22;9322;50.932;5.318;2024-03-08T02:43:17;4.20;1.40
18392;DHT22;9322;50.932;5.318;2024-03-08T02:45:44;4.20;1.40
18392;DHT22;9322;50.932;5.318;2024-03-08T02:48:11;4.30;1.40
18392;DHT22;9322;50.932;5.318;2024-03-08T02:50:37;4.20;1.40
18392;DHT22;9322;50.932;5.318;2024-03-08T02:53:05;4.20;1.40
18392;DHT22;9322;50.932;5.318;2024-03-08T02:55:31;4.20;1.40
18392;DHT22;9322;50.932;5.318;2024-03-08T02:57:57;4.20;1.40
18392;DHT22;9322;50.932;5.318;2024-03-08T03:00:23;4.20;1.40
18392;DHT22;9322;50.932;5.318;2024-03-08T03:02:50;4.10;1.40
18392;DHT22;9322;50.932;5.318;2024-03-08T03:05:23;4.10;1.40
18392;DHT22;9322;50.932;5.318;2024-03-08T03:07:49;4.10;1.40
18392;DHT22;9322;50.932;5.318;2024-03-08T03:10:17;4.10;1.40
18392;DHT22;9322;50.932;5.318;2024-03-08T03:12:43;4.00;1.40
18392;DHT22;9322;50.932;5.318;2024-03-08T03:15:11;4.00;1.40
18392;DHT22;9322;50.932;5.318;2024-03-08T03:17:37;4.00;1.40
18392;DHT22;9322;50.932;5.318;2024-03-08T03:20:06;4.00;1.40
18392;DHT22;9322;50.932;5.318;2024-03-08T03:22:38;4.00;1.40
18392;DHT22;9322;50.932;5.318;2024-03-08T03:25:04;4.00;1.40
18392;DHT22;9322;50.932;5.318;2024-03-08T03:27:32;4.00;1.40
18392;DHT22;9322;50.932;5.318;2024-03-08T03:29:58;4.00;1.40
18392;DHT22;9322;50.932;5.318;2024-03-08T03:32:24;4.00;1.40
18392;DHT22;9322;50.932;5.318;2024-03-08T03:34:50;3.90;1.40
18392;DHT22;9322;50.932;5.318;2024-03-08T03:37:21;4.00;1.40
18392;DHT22;9322;50.932;5.318;2024-03-08T03:39:47;4.00;1.40
18392;DHT22;9322;50.932;5.318;2024-03-08T03:42:18;3.90;1.40
18392;DHT22;9322;50.932;5.318;2024-03-08T03:44:45;3.90;1.40
18392;DHT22;9322;50.932;5.318;2024-03-08T03:47:12;3.80;1.40
18392;DHT22;9322;50.932;5.318;2024-03-08T03:49:38;3.80;1.40
18392;DHT22;9322;50.932;5.318;2024-03-08T03:52:04;3.80;1.40
18392;DHT22;9322;50.932;5.318;2024-03-08T03:54:31;3.80;1.40
18392;DHT22;9322;50.932;5.318;2024-03-08T03:56:57;3.80;1.40
18392;DHT22;9322;50.932;5.318;2024-03-08T03:59:22;3.80;1.40
18392;DHT22;9322;50.932;5.318;2024-03-08T04:01:50;3.70;1.40
18392;DHT22;9322;50.932;5.318;2024-03-08T04:04:16;3.80;1.40
18392;DHT22;9322;50.932;5.318;2024-03-08T04:06:41;3.80;1.40
18392;DHT22;9322;50.932;5.318;2024-03-08T04:09:07;3.80;1.40
18392;DHT22;9322;50.932;5.318;2024-03-08T04:11:33;3.90;1.40
18392;DHT22;9322;50.932;5.318;2024-03-08T04:13:59;3.80;1.40
18392;DHT22;9322;50.932;5.318;2024-03-08T04:16:25;3.80;1.40
18392;DHT22;9322;50.932;5.318;2024-03-08T04:18:52;3.70;1.40
18392;DHT22;9322;50.932;5.318;2024-03-08T04:21:17;3.60;1.40
18392;DHT22;9322;50.932;5.318;2024-03-08T04:23:45;3.60;1.40
18392;DHT22;9322;50.932;5.318;2024-03-08T04:26:11;3.70;1.40
18392;DHT22;9322;50.932;5.318;2024-03-08T04:28:37;3.60;1.40
18392;DHT22;9322;50.932;5.318;2024-03-08T04:31:03;3.60;1.40
18392;DHT22;9322;50.932;5.318;2024-03-08T04:33:29;3.50;1.40
18392;DHT22;9322;50.932;5.318;2024-03-08T04:35:55;3.60;1.40
18392;DHT22;9322;50.932;5.318;2024-03-08T04:38:21;3.60;1.40
18392;DHT22;9322;50.932;5.318;2024-03-08T04:40:48;3.60;1.40
18392;DHT22;9322;50.932;5.318;2024-03-08T04:43:14;3.50;1.40
18392;DHT22;9322;50.932;5.318;2024-03-08T04:45:40;3.60;1.40
18392;DHT22;9322;50.932;5.318;2024-03-08T04:48:09;3.50;1.40
18392;DHT22;9322;50.932;5.318;2024-03-08T04:50:35;3.50;1.40
18392;DHT22;9322;50.932;5.318;2024-03-08T04:53:00;3.50;1.40
18392;DHT22;9322;50.932;5.318;2024-03-08T04:55:26;3.50;1.40
18392;DHT22;9322;50.932;5.318;2024-03-08T04:57:52;3.50;1.40
18392;DHT22;9322;50.932;5.318;2024-03-08T05:00:18;3.50;1.40
18392;DHT22;9322;50.932;5.318;2024-03-08T05:02:44;3.50;1.40
18392;DHT22;9322;50.932;5.318;2024-03-08T05:05:10;3.50;1.40
18392;DHT22;9322;50.932;5.318;2024-03-08T05:07:39;3.50;1.40
18392;DHT22;9322;50.932;5.318;2024-03-08T05:10:06;3.50;1.40
18392;DHT22;9322;50.932;5.318;2024-03-08T05:12:33;3.50;1.40
18392;DHT22;9322;50.932;5.318;2024-03-08T05:14:58;3.50;1.40
18392;DHT22;9322;50.932;5.318;2024-03-08T05:17:24;3.50;1.40
18392;DHT22;9322;50.932;5.318;2024-03-08T05:19:50;3.40;1.40
18392;DHT22;9322;50.932;5.318;2024-03-08T05:22:16;3.40;1.40
18392;DHT22;9322;50.932;5.318;2024-03-08T05:24:43;3.40;1.40
18392;DHT22;9322;50.932;5.318;2024-03-08T05:27:09;3.40;1.40
18392;DHT22;9322;50.932;5.318;2024-03-08T05:29:34;3.40;1.40
18392;DHT22;9322;50.932;5.318;2024-03-08T05:32:00;3.40;1.40
18392;DHT22;9322;50.932;5.318;2024-03-08T05:34:26;3.40;1.40
18392;DHT22;9322;50.932;5.318;2024-03-08T05:36:54;3.30;1.40
18392;DHT22;9322;50.932;5.318;2024-03-08T05:39:20;3.40;1.40
18392;DHT22;9322;50.932;5.318;2024-03-08T05:41:46;3.40;1.40
18392;DHT22;9322;50.932;5.318;2024-03-08T05:44:13;3.40;1.40
18392;DHT22;9322;50.932;5.318;2024-03-08T05:46:39;3.50;1.40
18392;DHT22;9322;50.932;5.318;2024-03-08T05:49:06;3.40;1.40
18392;DHT22;9322;50.932;5.318;2024-03-08T05:51:32;3.40;1.40
18392;DHT22;9322;50.932;5.318;2024-03-08T05:54:05;3.40;1.40
18392;DHT22;9322;50.932;5.318;2024-03-08T05:56:33;3.30;1.40
18392;DHT22;9322;50.932;5.318;2024-03-08T05:58:59;3.30;1.40
18392;DHT22;9322;50.932;5.318;2024-03-08T06:01:25;3.40;1.40
18392;DHT22;9322;50.932;5.318;2024-03-08T06:03:55;3.40;1.40
18392;DHT22;9322;50.932;5.318;2024-03-08T06:06:23;3.40;1.40
18392;DHT22;9322;50.932;5.318;2024-03-08T06:08:50;3.40;1.40
18392;DHT22;9322;50.932;5.318;2024-03-08T06:11:16;3.40;1.40
18392;DHT22;9322;50.932;5.318;2024-03-08T06:13:43;3.40;1.40
18392;DHT22;9322;50.932;5.318;2024-03-08T06:16:09;3.40;1.40
18392;DHT22;9322;50.932;5.318;2024-03-08T06:18:35;3.50;1.40
18392;DHT22;9322;50.932;5.318;2024-03-08T06:21:12;3.50;1.40
18392;DHT22;9322;50.932;5.318;2024-03-08T06:23:38;3.60;1.40
18392;DHT22;9322;50.932;5.318;2024-03-08T06:26:07;3.50;1.40
18392;DHT22;9322;50.932;5.318;2024-03-08T06:28:34;3.70;1.40
18392;DHT22;9322;50.932;5.318;2024-03-08T06:31:03;3.80;1.40
18392;DHT22;9322;50.932;5.318;2024-03-08T06:33:29;4.00;1.40
18392;DHT22;9322;50.932;5.318;2024-03-08T06:35:55;4.10;1.40
18392;DHT22;9322;50.932;5.318;2024-03-08T06:38:24;4.20;1.40
18392;DHT22;9322;50.932;5.318;2024-03-08T06:40:50;4.40;1.40
18392;DHT22;9322;50.932;5.318;2024-03-08T06:43:17;4.40;1.40
18392;DHT22;9322;50.932;5.318;2024-03-08T06:45:44;4.40;1.40
18392;DHT22;9322;50.932;5.318;2024-03-08T06:48:17;4.60;1.40
18392;DHT22;9322;50.932;5.318;2024-03-08T06:50:44;4.80;1.40
18392;DHT22;9322;50.932;5.318;2024-03-08T06:53:11;4.90;1.40
18392;DHT22;9322;50.932;5.318;2024-03-08T06:55:37;5.00;1.40
18392;DHT22;9322;50.932;5.318;2024-03-08T06:58:02;5.20;1.40
18392;DHT22;9322;50.932;5.318;2024-03-08T07:00:28;5.30;1.40
18392;DHT22;9322;50.932;5.318;2024-03-08T07:02:56;5.60;1.40
18392;DHT22;9322;50.932;5.318;2024-03-08T07:05:27;5.70;1.40
18392;DHT22;9322;50.932;5.318;2024-03-08T07:07:52;5.60;1.40
18392;DHT22;9322;50.932;5.318;2024-03-08T07:10:21;5.80;1.40
18392;DHT22;9322;50.932;5.318;2024-03-08T07:12:46;6.20;1.40
18392;DHT22;9322;50.932;5.318;2024-03-08T07:15:12;6.50;1.40
18392;DHT22;9322;50.932;5.318;2024-03-08T07:17:41;6.60;1.40
18392;DHT22;9322;50.932;5.318;2024-03-08T07:20:10;7.00;1.40
18392;DHT22;9322;50.932;5.318;2024-03-08T07:22:37;7.10;1.40
18392;DHT22;9322;50.932;5.318;2024-03-08T07:25:07;7.00;1.40
18392;DHT22;9322;50.932;5.318;2024-03-08T07:27:33;7.10;1.40
18392;DHT22;9322;50.932;5.318;2024-03-08T07:30:03;7.20;1.40
18392;DHT22;9322;50.932;5.318;2024-03-08T07:32:29;7.40;1.40
18392;DHT22;9322;50.932;5.318;2024-03-08T07:34:56;7.90;1.40
18392;DHT22;9322;50.932;5.318;2024-03-08T07:37:22;7.90;1.40
18392;DHT22;9322;50.932;5.318;2024-03-08T07:39:49;8.00;1.40
18392;DHT22;9322;50.932;5.318;2024-03-08T07:42:15;8.20;1.40
18392;DHT22;9322;50.932;5.318;2024-03-08T07:44:42;8.40;1.40
18392;DHT22;9322;50.932;5.318;2024-03-08T07:47:08;8.70;1.40
18392;DHT22;9322;50.932;5.318;2024-03-08T07:49:35;8.70;1.40
18392;DHT22;9322;50.932;5.318;2024-03-08T07:52:03;8.60;1.40
18392;DHT22;9322;50.932;5.318;2024-03-08T07:54:30;9.00;1.40
18392;DHT22;9322;50.932;5.318;2024-03-08T07:56:56;9.00;1.40
18392;DHT22;9322;50.932;5.318;2024-03-08T07:59:22;8.50;1.40
18392;DHT22;9322;50.932;5.318;2024-03-08T08:01:48;8.70;1.40
18392;DHT22;9322;50.932;5.318;2024-03-08T08:04:13;9.00;1.40
18392;DHT22;9322;50.932;5.318;2024-03-08T08:06:41;9.10;1.40
18392;DHT22;9322;50.932;5.318;2024-03-08T08:09:10;9.30;1.40
18392;DHT22;9322;50.932;5.318;2024-03-08T08:11:40;9.00;1.40
18392;DHT22;9322;50.932;5.318;2024-03-08T08:14:09;9.10;1.40
18392;DHT22;9322;50.932;5.318;2024-03-08T08:16:38;9.40;1.40
18392;DHT22;9322;50.932;5.318;2024-03-08T08:19:06;9.30;1.40
18392;DHT22;9322;50.932;5.318;2024-03-08T08:21:34;9.30;1.40
18392;DHT22;9322;50.932;5.318;2024-03-08T08:24:03;9.90;1.40
18392;DHT22;9322;50.932;5.318;2024-03-08T08:26:29;10.30;1.40
18392;DHT22;9322;50.932;5.318;2024-03-08T08:28:54;10.00;1.40
18392;DHT22;9322;50.932;5.318;2024-03-08T08:31:20;9.90;1.40
18392;DHT22;9322;50.932;5.318;2024-03-08T08:33:46;10.50;1.40
18392;DHT22;9322;50.932;5.318;2024-03-08T08:36:13;10.70;1.40
18392;DHT22;9322;50.932;5.318;2024-03-08T08:38:39;10.90;1.40
18392;DHT22;9322;50.932;5.318;2024-03-08T08:41:05;11.50;1.40
18392;DHT22;9322;50.932;5.318;2024-03-08T08:43:31;11.90;1.40
18392;DHT22;9322;50.932;5.318;2024-03-08T08:45:59;11.20;1.40
18392;DHT22;9322;50.932;5.318;2024-03-08T08:48:24;10.70;1.40
18392;DHT22;9322;50.932;5.318;2024-03-08T08:50:50;10.80;1.40
18392;DHT22;9322;50.932;5.318;2024-03-08T08:53:17;10.50;1.40
18392;DHT22;9322;50.932;5.318;2024-03-08T08:55:44;10.40;1.40
18392;DHT22;9322;50.932;5.318;2024-03-08T08:58:11;10.80;1.40
18392;DHT22;9322;50.932;5.318;2024-03-08T09:00:37;11.30;1.40
18392;DHT22;9322;50.932;5.318;2024-03-08T09:03:03;11.30;1.40
18392;DHT22;9322;50.932;5.318;2024-03-08T09:05:29;11.40;1.40
18392;DHT22;9322;50.932;5.318;2024-03-08T09:07:55;11.60;1.40
18392;DHT22;9322;50.932;5.318;2024-03-08T09:10:21;12.10;1.40
18392;DHT22;9322;50.932;5.318;2024-03-08T09:12:47;11.30;1.40
18392;DHT22;9322;50.932;5.318;2024-03-08T09:15:12;11.20;1.40
18392;DHT22;9322;50.932;5.318;2024-03-08T09:17:39;11.70;1.40
18392;DHT22;9322;50.932;5.318;2024-03-08T09:20:10;12.00;1.40
18392;DHT22;9322;50.932;5.318;2024-03-08T09:22:43;12.20;1.40
18392;DHT22;9322;50.932;5.318;2024-03-08T09:25:09;12.00;1.40
18392;DHT22;9322;50.932;5.318;2024-03-08T09:27:35;11.30;1.40
18392;DHT22;9322;50.932;5.318;2024-03-08T09:30:02;11.50;1.40
18392;DHT22;9322;50.932;5.318;2024-03-08T09:32:28;12.00;1.40
18392;DHT22;9322;50.932;5.318;2024-03-08T09:34:53;12.30;1.40
18392;DHT22;9322;50.932;5.318;2024-03-08T09:37:20;12.60;1.40
18392;DHT22;9322;50.932;5.318;2024-03-08T09:39:46;12.80;1.40
18392;DHT22;9322;50.932;5.318;2024-03-08T09:42:12;12.50;1.40
18392;DHT22;9322;50.932;5.318;2024-03-08T09:44:44;12.50;1.40
18392;DHT22;9322;50.932;5.318;2024-03-08T09:47:13;12.30;1.40
18392;DHT22;9322;50.932;5.318;2024-03-08T09:49:39;12.70;1.40
18392;DHT22;9322;50.932;5.318;2024-03-08T09:52:07;12.40;1.40
18392;DHT22;9322;50.932;5.318;2024-03-08T09:54:33;12.50;1.40
18392;DHT22;9322;50.932;5.318;2024-03-08T09:56:59;12.80;1.40
18392;DHT22;9322;50.932;5.318;2024-03-08T09:59:25;13.40;1.40
18392;DHT22;9322;50.932;5.318;2024-03-08T10:01:54;13.00;1.40
18392;DHT22;9322;50.932;5.318;2024-03-08T10:04:24;13.20;1.40
18392;DHT22;9322;50.932;5.318;2024-03-08T10:06:51;12.90;1.40
18392;DHT22;9322;50.932;5.318;2024-03-08T10:09:17;12.80;1.40
18392;DHT22;9322;50.932;5.318;2024-03-08T10:11:44;13.30;1.40
18392;DHT22;9322;50.932;5.318;2024-03-08T10:14:11;13.90;1.40
18392;DHT22;9322;50.932;5.318;2024-03-08T10:16:38;13.70;1.40
18392;DHT22;9322;50.932;5.318;2024-03-08T10:19:05;13.50;1.40
18392;DHT22;9322;50.932;5.318;2024-03-08T10:21:32;13.60;1.40
18392;DHT22;9322;50.932;5.318;2024-03-08T10:23:58;13.40;1.40
18392;DHT22;9322;50.932;5.318;2024-03-08T10:26:25;14.10;1.40
18392;DHT22;9322;50.932;5.318;2024-03-08T10:28:52;13.90;1.40
18392;DHT22;9322;50.932;5.318;2024-03-08T10:31:19;14.00;1.40
18392;DHT22;9322;50.932;5.318;2024-03-08T10:33:46;14.70;1.40
18392;DHT22;9322;50.932;5.318;2024-03-08T10:36:13;14.30;1.40
18392;DHT22;9322;50.932;5.318;2024-03-08T10:38:40;14.80;1.40
18392;DHT22;9322;50.932;5.318;2024-03-08T10:41:07;15.00;1.40
18392;DHT22;9322;50.932;5.318;2024-03-08T10:49:25;13.90;1.40
18392;DHT22;9322;50.932;5.318;2024-03-08T10:51:51;13.40;1.40
18392;DHT22;9322;50.932;5.318;2024-03-08T10:54:19;14.00;1.40
18392;DHT22;9322;50.932;5.318;2024-03-08T10:56:47;14.30;1.40
18392;DHT22;9322;50.932;5.318;2024-03-08T10:59:14;15.10;1.40
18392;DHT22;9322;50.932;5.318;2024-03-08T11:01:40;14.90;1.40
18392;DHT22;9322;50.932;5.318;2024-03-08T11:04:06;15.60;1.40
18392;DHT22;9322;50.932;5.318;2024-03-08T11:09:11;15.30;1.40
18392;DHT22;9322;50.932;5.318;2024-03-08T11:11:52;15.50;1.40
18392;DHT22;9322;50.932;5.318;2024-03-08T11:14:43;14.90;1.40
18392;DHT22;9322;50.932;5.318;2024-03-08T11:17:09;14.80;1.40
18392;DHT22;9322;50.932;5.318;2024-03-08T11:19:35;14.90;1.40
18392;DHT22;9322;50.932;5.318;2024-03-08T11:22:05;14.50;1.40
18392;DHT22;9322;50.932;5.318;2024-03-08T11:24:38;14.40;1.40
18392;DHT22;9322;50.932;5.318;2024-03-08T11:27:05;14.70;1.40
18392;DHT22;9322;50.932;5.318;2024-03-08T11:29:33;15.40;1.40
18392;DHT22;9322;50.932;5.318;2024-03-08T11:32:11;15.70;1.40
18392;DHT22;9322;50.932;5.318;2024-03-08T11:34:38;15.60;1.40
18392;DHT22;9322;50.932;5.318;2024-03-08T11:37:06;15.30;1.40
18392;DHT22;9322;50.932;5.318;2024-03-08T11:39:39;15.70;1.40
18392;DHT22;9322;50.932;5.318;2024-03-08T11:42:05;16.50;1.40
18392;DHT22;9322;50.932;5.318;2024-03-08T11:44:32;16.20;1.40
18392;DHT22;9322;50.932;5.318;2024-03-08T11:46:58;16.40;1.40
18392;DHT22;9322;50.932;5.318;2024-03-08T11:49:23;17.00;1.40
18392;DHT22;9322;50.932;5.318;2024-03-08T11:51:54;16.70;1.40
18392;DHT22;9322;50.932;5.318;2024-03-08T11:54:19;16.50;1.40
18392;DHT22;9322;50.932;5.318;2024-03-08T11:56:45;16.30;1.40
18392;DHT22;9322;50.932;5.318;2024-03-08T11:59:13;15.70;1.40
18392;DHT22;9322;50.932;5.318;2024-03-08T12:01:40;15.90;1.40
18392;DHT22;9322;50.932;5.318;2024-03-08T12:04:06;16.30;1.40
18392;DHT22;9322;50.932;5.318;2024-03-08T12:06:41;16.90;1.40
18392;DHT22;9322;50.932;5.318;2024-03-08T12:09:11;16.60;1.40
18392;DHT22;9322;50.932;5.318;2024-03-08T12:11:38;16.40;1.40
18392;DHT22;9322;50.932;5.318;2024-03-08T12:14:04;16.00;1.40
18392;DHT22;9322;50.932;5.318;2024-03-08T12:16:30;16.10;1.40
18392;DHT22;9322;50.932;5.318;2024-03-08T12:18:58;16.70;1.40
18392;DHT22;9322;50.932;5.318;2024-03-08T12:21:26;17.60;1.40
18392;DHT22;9322;50.932;5.318;2024-03-08T12:24:07;17.70;1.40
18392;DHT22;9322;50.932;5.318;2024-03-08T12:26:39;17.50;1.40
18392;DHT22;9322;50.932;5.318;2024-03-08T12:29:26;17.40;1.40
18392;DHT22;9322;50.932;5.318;2024-03-08T12:31:58;16.50;1.40
18392;DHT22;9322;50.932;5.318;2024-03-08T12:34:27;15.80;1.40
18392;DHT22;9322;50.932;5.318;2024-03-08T12:36:55;15.70;1.40
18392;DHT22;9322;50.932;5.318;2024-03-08T12:39:22;15.60;1.40
18392;DHT22;9322;50.932;5.318;2024-03-08T12:41:55;14.40;1.40
18392;DHT22;9322;50.932;5.318;2024-03-08T12:44:25;13.40;1.40
18392;DHT22;9322;50.932;5.318;2024-03-08T12:46:51;12.90;1.40
18392;DHT22;9322;50.932;5.318;2024-03-08T12:49:19;13.00;1.40
18392;DHT22;9322;50.932;5.318;2024-03-08T12:51:47;13.10;1.40
18392;DHT22;9322;50.932;5.318;2024-03-08T12:54:13;13.30;1.40
18392;DHT22;9322;50.932;5.318;2024-03-08T12:56:39;13.10;1.40
18392;DHT22;9322;50.932;5.318;2024-03-08T12:59:06;13.10;1.40
18392;DHT22;9322;50.932;5.318;2024-03-08T13:01:33;12.70;1.40
18392;DHT22;9322;50.932;5.318;2024-03-08T13:04:00;12.50;1.40
18392;DHT22;9322;50.932;5.318;2024-03-08T13:06:29;12.30;1.40
18392;DHT22;9322;50.932;5.318;2024-03-08T13:08:56;12.40;1.40
18392;DHT22;9322;50.932;5.318;2024-03-08T13:11:24;12.40;1.40
18392;DHT22;9322;50.932;5.318;2024-03-08T13:13:50;12.30;1.40
18392;DHT22;9322;50.932;5.318;2024-03-08T13:16:16;12.20;1.40
18392;DHT22;9322;50.932;5.318;2024-03-08T13:18:43;12.20;1.40
18392;DHT22;9322;50.932;5.318;2024-03-08T13:21:10;12.10;1.40
18392;DHT22;9322;50.932;5.318;2024-03-08T13:23:37;12.30;1.40
18392;DHT22;9322;50.932;5.318;2024-03-08T13:26:10;12.40;1.40
18392;DHT22;9322;50.932;5.318;2024-03-08T13:28:48;12.40;1.40
18392;DHT22;9322;50.932;5.318;2024-03-08T13:31:21;12.40;1.40
18392;DHT22;9322;50.932;5.318;2024-03-08T13:33:47;12.50;1.40
18392;DHT22;9322;50.932;5.318;2024-03-08T13:36:14;12.60;1.40
18392;DHT22;9322;50.932;5.318;2024-03-08T13:38:44;12.60;1.40
18392;DHT22;9322;50.932;5.318;2024-03-08T13:41:11;12.60;1.40
18392;DHT22;9322;50.932;5.318;2024-03-08T13:43:38;12.60;1.40
18392;DHT22;9322;50.932;5.318;2024-03-08T13:46:05;12.50;1.40
18392;DHT22;9322;50.932;5.318;2024-03-08T13:48:33;12.60;1.40
18392;DHT22;9322;50.932;5.318;2024-03-08T13:50:58;12.50;1.40
18392;DHT22;9322;50.932;5.318;2024-03-08T13:53:26;12.40;1.40
18392;DHT22;9322;50.932;5.318;2024-03-08T13:55:52;12.40;1.40
18392;DHT22;9322;50.932;5.318;2024-03-08T13:58:17;12.40;1.40
18392;DHT22;9322;50.932;5.318;2024-03-08T14:00:46;12.40;1.40
18392;DHT22;9322;50.932;5.318;2024-03-08T14:03:13;12.30;1.40
18392;DHT22;9322;50.932;5.318;2024-03-08T14:05:40;12.30;1.40
18392;DHT22;9322;50.932;5.318;2024-03-08T14:08:07;12.40;1.40
18392;DHT22;9322;50.932;5.318;2024-03-08T14:10:34;12.50;1.40
18392;DHT22;9322;50.932;5.318;2024-03-08T14:13:00;12.50;1.40
18392;DHT22;9322;50.932;5.318;2024-03-08T14:15:26;12.70;1.40
18392;DHT22;9322;50.932;5.318;2024-03-08T14:17:53;12.70;1.40
18392;DHT22;9322;50.932;5.318;2024-03-08T14:20:19;12.70;1.40
18392;DHT22;9322;50.932;5.318;2024-03-08T14:22:44;12.40;1.40
18392;DHT22;9322;50.932;5.318;2024-03-08T14:25:11;12.40;1.40
18392;DHT22;9322;50.932;5.318;2024-03-08T14:27:46;12.50;1.40
18392;DHT22;9322;50.932;5.318;2024-03-08T14:30:12;12.50;1.40
18392;DHT22;9322;50.932;5.318;2024-03-08T14:32:38;12.50;1.40
18392;DHT22;9322;50.932;5.318;2024-03-08T14:35:07;12.50;1.40
18392;DHT22;9322;50.932;5.318;2024-03-08T14:37:33;12.50;1.40
18392;DHT22;9322;50.932;5.318;2024-03-08T14:40:00;12.40;1.40
18392;DHT22;9322;50.932;5.318;2024-03-08T14:42:26;12.40;1.40
18392;DHT22;9322;50.932;5.318;2024-03-08T14:44:51;12.60;1.40
18392;DHT22;9322;50.932;5.318;2024-03-08T14:47:19;12.70;1.40
18392;DHT22;9322;50.932;5.318;2024-03-08T14:49:45;12.50;1.40
18392;DHT22;9322;50.932;5.318;2024-03-08T14:52:11;12.20;1.40
18392;DHT22;9322;50.932;5.318;2024-03-08T14:54:55;12.20;1.40
18392;DHT22;9322;50.932;5.318;2024-03-08T14:57:24;12.40;1.40
18392;DHT22;9322;50.932;5.318;2024-03-08T14:59:49;12.50;1.40
18392;DHT22;9322;50.932;5.318;2024-03-08T15:02:15;12.30;1.40
18392;DHT22;9322;50.932;5.318;2024-03-08T15:04:47;12.30;1.40
18392;DHT22;9322;50.932;5.318;2024-03-08T15:07:22;12.40;1.40
18392;DHT22;9322;50.932;5.318;2024-03-08T15:09:48;12.40;1.40
18392;DHT22;9322;50.932;5.318;2024-03-08T15:12:14;12.30;1.40
18392;DHT22;9322;50.932;5.318;2024-03-08T15:14:40;12.30;1.40
18392;DHT22;9322;50.932;5.318;2024-03-08T15:17:09;12.30;1.40
18392;DHT22;9322;50.932;5.318;2024-03-08T15:19:43;12.40;1.40
18392;DHT22;9322;50.932;5.318;2024-03-08T15:22:10;12.20;1.40
18392;DHT22;9322;50.932;5.318;2024-03-08T15:24:37;12.20;1.40
18392;DHT22;9322;50.932;5.318;2024-03-08T15:27:03;12.20;1.40
18392;DHT22;9322;50.932;5.318;2024-03-08T15:29:29;12.20;1.40
18392;DHT22;9322;50.932;5.318;2024-03-08T15:31:54;12.30;1.40
18392;DHT22;9322;50.932;5.318;2024-03-08T15:34:20;12.20;1.40
18392;DHT22;9322;50.932;5.318;2024-03-08T15:36:50;12.20;1.40
18392;DHT22;9322;50.932;5.318;2024-03-08T15:39:19;12.20;1.40
18392;DHT22;9322;50.932;5.318;2024-03-08T15:41:49;12.20;1.40
18392;DHT22;9322;50.932;5.318;2024-03-08T15:44:15;12.20;1.40
18392;DHT22;9322;50.932;5.318;2024-03-08T15:46:41;12.30;1.40
18392;DHT22;9322;50.932;5.318;2024-03-08T15:49:07;12.20;1.40
18392;DHT22;9322;50.932;5.318;2024-03-08T15:51:34;12.20;1.40
18392;DHT22;9322;50.932;5.318;2024-03-08T15:54:02;12.20;1.40
18392;DHT22;9322;50.932;5.318;2024-03-08T15:56:30;12.10;1.40
18392;DHT22;9322;50.932;5.318;2024-03-08T15:59:00;12.10;1.40
18392;DHT22;9322;50.932;5.318;2024-03-08T16:01:29;12.00;1.40
18392;DHT22;9322;50.932;5.318;2024-03-08T16:03:56;12.00;1.40
18392;DHT22;9322;50.932;5.318;2024-03-08T16:06:24;12.00;1.40
18392;DHT22;9322;50.932;5.318;2024-03-08T16:08:53;12.00;1.40
18392;DHT22;9322;50.932;5.318;2024-03-08T16:11:19;12.00;1.40
18392;DHT22;9322;50.932;5.318;2024-03-08T16:13:47;12.00;1.40
18392;DHT22;9322;50.932;5.318;2024-03-08T16:16:12;12.10;1.40
18392;DHT22;9322;50.932;5.318;2024-03-08T16:18:38;12.00;1.40